Terminal Aerodrome Forecast
Issued by NWS Charleston, WV

Current Version | Previous Version | Text Only | Print | Product List | Glossary Off
Versions: 1 2 3 4 5 6 7 8 9 10 11 12 13 14 15 16 17 18 19 20 21 22 23 24 25 26

304
FTUS41 KRLX 230929 AAB
TAFEKN
TAF AMD
KEKN 230929Z 2309/2406 VRB03KT 5SM -SHRA OVC025
     FM231000 24003KT 4SM BR OVC025
     FM231400 24005KT P6SM BKN025
     FM231800 24008KT P6SM VCTS BKN050CB=

USA.gov is the U.S. government's official web portal to all federal, state and local government web resources and services.